sensor_id;sensor_type;location;lat;lon;timestamp;pressure;altitude;pressure_sealevel;temperature;humidity
20350;BME280;10332;50.208;18.988;2022-10-13T00:01:14;98873.38;;;8.10;72.23
20350;BME280;10332;50.208;18.988;2022-10-13T00:03:43;98872.88;;;8.02;72.52
20350;BME280;10332;50.208;18.988;2022-10-13T00:06:18;98872.09;;;8.00;72.25
20350;BME280;10332;50.208;18.988;2022-10-13T00:08:45;98866.94;;;7.98;72.30
20350;BME280;10332;50.208;18.988;2022-10-13T00:11:23;98867.09;;;7.95;72.21
20350;BME280;10332;50.208;18.988;2022-10-13T00:13:55;98874.03;;;7.95;72.10
20350;BME280;10332;50.208;18.988;2022-10-13T00:16:23;98866.25;;;7.95;72.38
20350;BME280;10332;50.208;18.988;2022-10-13T00:18:51;98876.72;;;7.93;72.17
20350;BME280;10332;50.208;18.988;2022-10-13T00:21:23;98864.63;;;7.92;71.97
20350;BME280;10332;50.208;18.988;2022-10-13T00:23:52;98864.63;;;7.92;71.95
20350;BME280;10332;50.208;18.988;2022-10-13T00:26:23;98862.16;;;7.89;72.27
20350;BME280;10332;50.208;18.988;2022-10-13T00:28:51;98865.56;;;7.91;72.05
20350;BME280;10332;50.208;18.988;2022-10-13T00:31:24;98860.69;;;7.84;72.24
20350;BME280;10332;50.208;18.988;2022-10-13T00:33:52;98861.66;;;7.81;71.81
20350;BME280;10332;50.208;18.988;2022-10-13T00:36:21;98860.94;;;7.78;72.28
20350;BME280;10332;50.208;18.988;2022-10-13T00:38:51;98858.75;;;7.68;72.01
20350;BME280;10332;50.208;18.988;2022-10-13T00:41:19;98858.91;;;7.65;72.31
20350;BME280;10332;50.208;18.988;2022-10-13T00:44:03;98858.09;;;7.63;72.35
20350;BME280;10332;50.208;18.988;2022-10-13T00:46:35;98859.03;;;7.62;72.11
20350;BME280;10332;50.208;18.988;2022-10-13T00:49:11;98854.81;;;7.60;72.22
20350;BME280;10332;50.208;18.988;2022-10-13T00:51:44;98862.03;;;7.53;72.81
20350;BME280;10332;50.208;18.988;2022-10-13T00:54:17;98865.75;;;7.48;73.95
20350;BME280;10332;50.208;18.988;2022-10-13T00:56:48;98867.53;;;7.46;74.34
20350;BME280;10332;50.208;18.988;2022-10-13T00:59:25;98859.88;;;7.43;75.45
20350;BME280;10332;50.208;18.988;2022-10-13T01:01:57;98856.13;;;7.50;75.15
20350;BME280;10332;50.208;18.988;2022-10-13T01:04:31;98856.97;;;7.50;75.82
20350;BME280;10332;50.208;18.988;2022-10-13T01:07:01;98859.34;;;7.55;75.98
20350;BME280;10332;50.208;18.988;2022-10-13T01:09:29;98847.84;;;7.60;75.31
20350;BME280;10332;50.208;18.988;2022-10-13T01:15:34;98850.28;;;7.65;74.77
20350;BME280;10332;50.208;18.988;2022-10-13T01:21:06;98837.06;;;7.69;74.35
20350;BME280;10332;50.208;18.988;2022-10-13T01:24:03;98833.19;;;7.59;75.40
20350;BME280;10332;50.208;18.988;2022-10-13T01:30:07;98827.31;;;7.54;75.24
20350;BME280;10332;50.208;18.988;2022-10-13T01:35:55;98827.72;;;7.45;74.13
20350;BME280;10332;50.208;18.988;2022-10-13T01:38:54;98823.53;;;7.43;73.79
20350;BME280;10332;50.208;18.988;2022-10-13T01:41:39;98817.75;;;7.36;73.71
20350;BME280;10332;50.208;18.988;2022-10-13T01:44:33;98818.97;;;7.27;73.65
20350;BME280;10332;50.208;18.988;2022-10-13T01:47:06;98811.16;;;7.29;73.99
20350;BME280;10332;50.208;18.988;2022-10-13T01:49:35;98818.13;;;7.27;75.10
20350;BME280;10332;50.208;18.988;2022-10-13T01:52:12;98808.03;;;7.21;74.66
20350;BME280;10332;50.208;18.988;2022-10-13T01:54:41;98816.38;;;7.27;74.50
20350;BME280;10332;50.208;18.988;2022-10-13T01:57:32;98814.78;;;7.25;74.40
20350;BME280;10332;50.208;18.988;2022-10-13T02:00:07;98811.41;;;7.23;74.06
20350;BME280;10332;50.208;18.988;2022-10-13T02:05:53;98811.59;;;7.18;73.74
20350;BME280;10332;50.208;18.988;2022-10-13T02:08:44;98808.44;;;7.11;74.02
20350;BME280;10332;50.208;18.988;2022-10-13T02:11:18;98806.91;;;7.06;73.58
20350;BME280;10332;50.208;18.988;2022-10-13T02:16:36;98807.97;;;7.02;73.69
20350;BME280;10332;50.208;18.988;2022-10-13T02:19:09;98806.22;;;7.02;73.82
20350;BME280;10332;50.208;18.988;2022-10-13T02:21:38;98801.81;;;7.04;73.79
20350;BME280;10332;50.208;18.988;2022-10-13T02:24:07;98804.41;;;7.04;74.21
20350;BME280;10332;50.208;18.988;2022-10-13T02:26:36;98798.44;;;7.02;74.49
20350;BME280;10332;50.208;18.988;2022-10-13T02:29:14;98801.13;;;6.99;73.98
20350;BME280;10332;50.208;18.988;2022-10-13T02:31:44;98807.13;;;7.01;73.78
20350;BME280;10332;50.208;18.988;2022-10-13T02:34:13;98805.41;;;7.00;74.09
20350;BME280;10332;50.208;18.988;2022-10-13T02:36:41;98805.41;;;7.00;73.95
20350;BME280;10332;50.208;18.988;2022-10-13T02:39:11;98795.09;;;6.99;74.30
20350;BME280;10332;50.208;18.988;2022-10-13T02:41:39;98794.09;;;7.03;74.31
20350;BME280;10332;50.208;18.988;2022-10-13T02:44:06;98793.16;;;7.04;74.13
20350;BME280;10332;50.208;18.988;2022-10-13T02:46:34;98786.94;;;7.08;73.89
20350;BME280;10332;50.208;18.988;2022-10-13T02:49:01;98790.50;;;7.05;75.67
20350;BME280;10332;50.208;18.988;2022-10-13T02:51:29;98794.78;;;7.06;75.12
20350;BME280;10332;50.208;18.988;2022-10-13T02:53:56;98792.19;;;7.06;75.35
20350;BME280;10332;50.208;18.988;2022-10-13T02:56:23;98787.00;;;7.06;75.46
20350;BME280;10332;50.208;18.988;2022-10-13T02:58:51;98790.56;;;7.04;76.12
20350;BME280;10332;50.208;18.988;2022-10-13T03:01:18;98786.22;;;7.04;77.01
20350;BME280;10332;50.208;18.988;2022-10-13T03:03:45;98787.00;;;7.06;77.19
20350;BME280;10332;50.208;18.988;2022-10-13T03:06:31;98793.09;;;7.05;76.58
20350;BME280;10332;50.208;18.988;2022-10-13T03:08:59;98788.81;;;7.04;77.13
20350;BME280;10332;50.208;18.988;2022-10-13T03:11:26;98787.22;;;7.02;77.38
20350;BME280;10332;50.208;18.988;2022-10-13T03:13:54;98786.47;;;6.98;78.66
20350;BME280;10332;50.208;18.988;2022-10-13T03:16:21;98784.66;;;7.00;79.17
20350;BME280;10332;50.208;18.988;2022-10-13T03:18:49;98777.06;;;6.96;78.84
20350;BME280;10332;50.208;18.988;2022-10-13T03:21:16;98775.31;;;6.96;78.68
20350;BME280;10332;50.208;18.988;2022-10-13T03:23:43;98774.63;;;6.93;78.84
20350;BME280;10332;50.208;18.988;2022-10-13T03:26:11;98772.06;;;6.91;79.00
20350;BME280;10332;50.208;18.988;2022-10-13T03:28:38;98763.44;;;6.91;78.70
20350;BME280;10332;50.208;18.988;2022-10-13T03:31:09;98767.00;;;6.88;78.71
20350;BME280;10332;50.208;18.988;2022-10-13T03:33:36;98774.16;;;6.83;78.26
20350;BME280;10332;50.208;18.988;2022-10-13T03:36:05;98767.31;;;6.80;77.83
20350;BME280;10332;50.208;18.988;2022-10-13T03:38:34;98778.63;;;6.79;77.84
20350;BME280;10332;50.208;18.988;2022-10-13T03:41:11;98772.72;;;6.76;77.99
20350;BME280;10332;50.208;18.988;2022-10-13T03:43:41;98764.41;;;6.68;79.55
20350;BME280;10332;50.208;18.988;2022-10-13T03:46:13;98757.78;;;6.61;80.11
20350;BME280;10332;50.208;18.988;2022-10-13T03:48:41;98762.06;;;6.62;79.86
20350;BME280;10332;50.208;18.988;2022-10-13T03:51:15;98758.00;;;6.56;80.52
20350;BME280;10332;50.208;18.988;2022-10-13T03:53:43;98758.94;;;6.53;80.98
20350;BME280;10332;50.208;18.988;2022-10-13T03:56:16;98756.41;;;6.52;81.07
20350;BME280;10332;50.208;18.988;2022-10-13T03:58:44;98759.84;;;6.52;81.48
20350;BME280;10332;50.208;18.988;2022-10-13T04:01:13;98765.81;;;6.54;81.07
20350;BME280;10332;50.208;18.988;2022-10-13T04:03:40;98766.56;;;6.58;81.52
20350;BME280;10332;50.208;18.988;2022-10-13T04:06:08;98767.41;;;6.59;80.99
20350;BME280;10332;50.208;18.988;2022-10-13T04:08:36;98765.88;;;6.53;82.80
20350;BME280;10332;50.208;18.988;2022-10-13T04:11:07;98767.41;;;6.59;82.70
20350;BME280;10332;50.208;18.988;2022-10-13T04:13:35;98759.78;;;6.54;83.65
20350;BME280;10332;50.208;18.988;2022-10-13T04:16:11;98764.97;;;6.54;83.76
20350;BME280;10332;50.208;18.988;2022-10-13T04:18:39;98763.34;;;6.51;84.09
20350;BME280;10332;50.208;18.988;2022-10-13T04:21:13;98773.88;;;6.48;84.74
20350;BME280;10332;50.208;18.988;2022-10-13T04:23:41;98772.81;;;6.52;84.28
20350;BME280;10332;50.208;18.988;2022-10-13T04:26:16;98778.78;;;6.54;84.91
20350;BME280;10332;50.208;18.988;2022-10-13T04:28:46;98771.66;;;6.60;85.48
20350;BME280;10332;50.208;18.988;2022-10-13T04:31:14;98771.00;;;6.54;87.20
20350;BME280;10332;50.208;18.988;2022-10-13T04:33:42;98769.00;;;6.61;86.26
20350;BME280;10332;50.208;18.988;2022-10-13T04:36:13;98769.72;;;6.65;86.14
20350;BME280;10332;50.208;18.988;2022-10-13T04:38:41;98778.22;;;6.68;85.59
20350;BME280;10332;50.208;18.988;2022-10-13T04:41:10;98778.38;;;6.65;85.94
20350;BME280;10332;50.208;18.988;2022-10-13T04:43:37;98777.38;;;6.68;85.54
20350;BME280;10332;50.208;18.988;2022-10-13T04:46:18;98771.75;;;6.58;86.64
20350;BME280;10332;50.208;18.988;2022-10-13T04:48:46;98778.38;;;6.65;85.90
20350;BME280;10332;50.208;18.988;2022-10-13T04:51:17;98774.97;;;6.63;86.06
20350;BME280;10332;50.208;18.988;2022-10-13T04:53:46;98774.41;;;6.57;86.55
20350;BME280;10332;50.208;18.988;2022-10-13T04:56:16;98773.28;;;6.62;85.88
20350;BME280;10332;50.208;18.988;2022-10-13T04:58:45;98770.91;;;6.58;85.88
20350;BME280;10332;50.208;18.988;2022-10-13T05:01:16;98772.69;;;6.55;86.05
20350;BME280;10332;50.208;18.988;2022-10-13T05:03:54;98770.22;;;6.52;86.31
20350;BME280;10332;50.208;18.988;2022-10-13T05:06:25;98775.94;;;6.61;86.27
20350;BME280;10332;50.208;18.988;2022-10-13T05:08:53;98774.13;;;6.63;85.90
20350;BME280;10332;50.208;18.988;2022-10-13T05:11:23;98775.72;;;6.67;85.51
20350;BME280;10332;50.208;18.988;2022-10-13T05:13:54;98774.78;;;6.68;85.28
20350;BME280;10332;50.208;18.988;2022-10-13T05:16:22;98768.56;;;6.72;85.00
20350;BME280;10332;50.208;18.988;2022-10-13T05:18:53;98769.31;;;6.74;84.87
20350;BME280;10332;50.208;18.988;2022-10-13T05:21:24;98763.97;;;6.78;84.39
20350;BME280;10332;50.208;18.988;2022-10-13T05:23:54;98771.59;;;6.81;84.11
20350;BME280;10332;50.208;18.988;2022-10-13T05:26:27;98764.56;;;6.85;83.72
20350;BME280;10332;50.208;18.988;2022-10-13T05:28:56;98772.97;;;6.90;83.79
20350;BME280;10332;50.208;18.988;2022-10-13T05:31:26;98766.94;;;6.90;83.82
20350;BME280;10332;50.208;18.988;2022-10-13T05:33:55;98770.38;;;6.90;83.97
20350;BME280;10332;50.208;18.988;2022-10-13T05:36:27;98771.81;;;6.97;83.54
20350;BME280;10332;50.208;18.988;2022-10-13T05:39:02;98764.47;;;7.07;83.37
20350;BME280;10332;50.208;18.988;2022-10-13T05:41:31;98764.16;;;7.15;82.83
20350;BME280;10332;50.208;18.988;2022-10-13T05:44:06;98769.19;;;7.18;82.72
20350;BME280;10332;50.208;18.988;2022-10-13T05:46:34;98763.81;;;7.22;82.70
20350;BME280;10332;50.208;18.988;2022-10-13T05:49:02;98761.22;;;7.22;83.04
20350;BME280;10332;50.208;18.988;2022-10-13T05:51:39;98765.44;;;7.25;83.05
20350;BME280;10332;50.208;18.988;2022-10-13T05:54:16;98769.38;;;7.33;82.78
20350;BME280;10332;50.208;18.988;2022-10-13T05:57:25;98767.97;;;7.45;82.28
20350;BME280;10332;50.208;18.988;2022-10-13T06:00:07;98769.28;;;7.55;81.83
20350;BME280;10332;50.208;18.988;2022-10-13T06:02:44;98769.72;;;7.65;81.50
20350;BME280;10332;50.208;18.988;2022-10-13T06:05:17;98775.41;;;7.73;81.59
20350;BME280;10332;50.208;18.988;2022-10-13T06:07:46;98769.78;;;7.82;81.81
20350;BME280;10332;50.208;18.988;2022-10-13T06:10:14;98774.06;;;7.83;82.84
20350;BME280;10332;50.208;18.988;2022-10-13T06:12:42;98768.22;;;7.97;82.74
20350;BME280;10332;50.208;18.988;2022-10-13T06:15:10;98761.88;;;8.03;82.83
20350;BME280;10332;50.208;18.988;2022-10-13T06:17:38;98764.13;;;8.10;82.67
20350;BME280;10332;50.208;18.988;2022-10-13T06:20:07;98774.19;;;8.18;82.32
20350;BME280;10332;50.208;18.988;2022-10-13T06:22:37;98779.56;;;8.32;81.87
20350;BME280;10332;50.208;18.988;2022-10-13T06:25:06;98785.09;;;8.43;81.66
20350;BME280;10332;50.208;18.988;2022-10-13T06:27:34;98773.56;;;8.49;81.71
20350;BME280;10332;50.208;18.988;2022-10-13T06:30:02;98774.03;;;8.57;81.92
20350;BME280;10332;50.208;18.988;2022-10-13T06:32:29;98780.72;;;8.63;81.76
20350;BME280;10332;50.208;18.988;2022-10-13T06:34:57;98779.00;;;8.62;82.29
20350;BME280;10332;50.208;18.988;2022-10-13T06:37:24;98779.00;;;8.62;83.02
20350;BME280;10332;50.208;18.988;2022-10-13T06:39:53;98780.41;;;8.69;82.67
20350;BME280;10332;50.208;18.988;2022-10-13T06:42:21;98773.44;;;8.87;81.73
20350;BME280;10332;50.208;18.988;2022-10-13T06:44:49;98771.81;;;9.01;81.17
20350;BME280;10332;50.208;18.988;2022-10-13T06:47:16;98766.59;;;9.19;80.78
20350;BME280;10332;50.208;18.988;2022-10-13T06:49:44;98770.19;;;9.16;80.33
20350;BME280;10332;50.208;18.988;2022-10-13T06:52:11;98767.19;;;9.24;80.26
20350;BME280;10332;50.208;18.988;2022-10-13T06:54:39;98772.16;;;9.28;79.97
20350;BME280;10332;50.208;18.988;2022-10-13T06:57:06;98761.59;;;9.31;79.59
20350;BME280;10332;50.208;18.988;2022-10-13T06:59:34;98758.41;;;9.42;79.09
20350;BME280;10332;50.208;18.988;2022-10-13T07:02:01;98755.88;;;9.41;79.00
20350;BME280;10332;50.208;18.988;2022-10-13T07:04:28;98755.75;;;9.44;79.05
20350;BME280;10332;50.208;18.988;2022-10-13T07:06:56;98757.44;;;9.45;79.01
20350;BME280;10332;50.208;18.988;2022-10-13T07:09:23;98757.94;;;9.67;78.23
20350;BME280;10332;50.208;18.988;2022-10-13T07:11:51;98753.78;;;9.80;78.05
20350;BME280;10332;50.208;18.988;2022-10-13T07:14:18;98758.81;;;9.83;77.82
20350;BME280;10332;50.208;18.988;2022-10-13T07:16:49;98752.06;;;9.95;77.69
20350;BME280;10332;50.208;18.988;2022-10-13T07:19:16;98754.03;;;10.07;77.06
20350;BME280;10332;50.208;18.988;2022-10-13T07:21:43;98749.19;;;10.15;76.55
20350;BME280;10332;50.208;18.988;2022-10-13T07:24:11;98750.47;;;10.40;76.12
20350;BME280;10332;50.208;18.988;2022-10-13T07:26:39;98752.44;;;10.66;75.48
20350;BME280;10332;50.208;18.988;2022-10-13T07:29:06;98751.19;;;11.02;74.38
20350;BME280;10332;50.208;18.988;2022-10-13T07:31:34;98751.44;;;11.27;73.16
20350;BME280;10332;50.208;18.988;2022-10-13T07:34:01;98744.78;;;11.79;72.34
20350;BME280;10332;50.208;18.988;2022-10-13T07:36:32;98750.94;;;13.87;67.51
20350;BME280;10332;50.208;18.988;2022-10-13T07:39:00;98739.53;;;17.45;58.85
20350;BME280;10332;50.208;18.988;2022-10-13T07:41:29;98744.16;;;20.12;50.41
20350;BME280;10332;50.208;18.988;2022-10-13T07:43:57;98727.28;;;22.39;44.37
20350;BME280;10332;50.208;18.988;2022-10-13T07:46:25;98729.53;;;24.66;41.88
20350;BME280;10332;50.208;18.988;2022-10-13T07:48:53;98729.28;;;26.46;38.34
20350;BME280;10332;50.208;18.988;2022-10-13T07:51:21;98727.75;;;27.63;34.56
20350;BME280;10332;50.208;18.988;2022-10-13T07:53:49;98731.94;;;29.01;32.93
20350;BME280;10332;50.208;18.988;2022-10-13T07:56:16;98732.13;;;30.17;29.88
20350;BME280;10332;50.208;18.988;2022-10-13T07:58:46;98734.84;;;30.56;27.83
20350;BME280;10332;50.208;18.988;2022-10-13T08:01:17;98730.75;;;31.89;27.29
20350;BME280;10332;50.208;18.988;2022-10-13T08:03:44;98741.59;;;33.10;26.63
20350;BME280;10332;50.208;18.988;2022-10-13T08:06:16;98738.88;;;33.92;24.10
20350;BME280;10332;50.208;18.988;2022-10-13T08:08:44;98734.03;;;33.82;23.41
20350;BME280;10332;50.208;18.988;2022-10-13T08:11:14;98734.31;;;34.49;22.89
20350;BME280;10332;50.208;18.988;2022-10-13T08:13:51;98729.13;;;35.43;22.61
20350;BME280;10332;50.208;18.988;2022-10-13T08:16:19;98736.94;;;35.78;21.33
20350;BME280;10332;50.208;18.988;2022-10-13T08:18:47;98744.75;;;36.62;20.30
20350;BME280;10332;50.208;18.988;2022-10-13T08:21:17;98745.72;;;37.42;20.35
20350;BME280;10332;50.208;18.988;2022-10-13T08:24:07;98735.16;;;38.14;19.41
20350;BME280;10332;50.208;18.988;2022-10-13T08:26:35;98734.22;;;38.81;18.70
20350;BME280;10332;50.208;18.988;2022-10-13T08:29:03;98735.00;;;39.63;18.34
20350;BME280;10332;50.208;18.988;2022-10-13T08:31:52;98734.34;;;40.56;17.26
20350;BME280;10332;50.208;18.988;2022-10-13T08:34:22;98726.84;;;41.35;16.99
20350;BME280;10332;50.208;18.988;2022-10-13T08:36:51;98723.84;;;41.84;16.56
20350;BME280;10332;50.208;18.988;2022-10-13T08:39:23;98725.53;;;42.42;15.79
20350;BME280;10332;50.208;18.988;2022-10-13T08:41:51;98722.09;;;43.20;15.59
20350;BME280;10332;50.208;18.988;2022-10-13T08:44:39;98720.09;;;43.67;15.32
20350;BME280;10332;50.208;18.988;2022-10-13T08:47:45;98721.75;;;43.54;13.82
20350;BME280;10332;50.208;18.988;2022-10-13T08:50:25;98719.88;;;44.32;14.21
20350;BME280;10332;50.208;18.988;2022-10-13T08:53:08;98725.22;;;45.18;13.78
20350;BME280;10332;50.208;18.988;2022-10-13T08:55:44;98727.00;;;45.85;13.80
20350;BME280;10332;50.208;18.988;2022-10-13T08:58:23;98718.47;;;46.21;13.22
20350;BME280;10332;50.208;18.988;2022-10-13T09:01:22;98713.25;;;46.89;12.96
20350;BME280;10332;50.208;18.988;2022-10-13T09:06:43;98706.03;;;48.41;11.55
20350;BME280;10332;50.208;18.988;2022-10-13T09:09:13;98715.16;;;48.20;11.63
20350;BME280;10332;50.208;18.988;2022-10-13T09:11:46;98708.78;;;48.82;11.52
20350;BME280;10332;50.208;18.988;2022-10-13T09:16:53;98706.25;;;49.84;11.00
20350;BME280;10332;50.208;18.988;2022-10-13T09:19:31;98705.81;;;49.82;10.64
20350;BME280;10332;50.208;18.988;2022-10-13T09:22:25;98713.63;;;50.04;10.90
20350;BME280;10332;50.208;18.988;2022-10-13T09:25:21;98713.91;;;50.67;10.68
20350;BME280;10332;50.208;18.988;2022-10-13T09:27:58;98704.06;;;51.14;9.74
20350;BME280;10332;50.208;18.988;2022-10-13T09:30:35;98702.75;;;51.23;10.17
20350;BME280;10332;50.208;18.988;2022-10-13T09:33:24;98695.75;;;51.45;9.94
20350;BME280;10332;50.208;18.988;2022-10-13T09:38:33;98686.94;;;52.48;9.46
20350;BME280;10332;50.208;18.988;2022-10-13T09:41:19;98692.88;;;51.92;9.35
20350;BME280;10332;50.208;18.988;2022-10-13T09:46:25;98690.66;;;53.41;9.06
20350;BME280;10332;50.208;18.988;2022-10-13T09:48:59;98680.88;;;53.54;8.72
20350;BME280;10332;50.208;18.988;2022-10-13T09:51:42;98684.66;;;52.96;8.99
20350;BME280;10332;50.208;18.988;2022-10-13T09:54:32;98686.53;;;53.35;8.71
20350;BME280;10332;50.208;18.988;2022-10-13T09:57:29;98678.03;;;53.04;8.47
20350;BME280;10332;50.208;18.988;2022-10-13T10:00:28;98682.59;;;53.89;8.29
20350;BME280;10332;50.208;18.988;2022-10-13T10:03:21;98673.81;;;53.90;8.03
20350;BME280;10332;50.208;18.988;2022-10-13T10:05:57;98674.72;;;54.61;8.43
20350;BME280;10332;50.208;18.988;2022-10-13T10:08:57;98674.78;;;54.68;8.09
20350;BME280;10332;50.208;18.988;2022-10-13T10:11:41;98667.75;;;55.26;7.49
20350;BME280;10332;50.208;18.988;2022-10-13T10:14:23;98666.00;;;55.62;7.25
20350;BME280;10332;50.208;18.988;2022-10-13T10:17:10;98665.28;;;55.69;7.49
20350;BME280;10332;50.208;18.988;2022-10-13T10:26:01;98648.91;;;55.23;7.20
20350;BME280;10332;50.208;18.988;2022-10-13T10:29:16;98643.66;;;56.74;6.90
20350;BME280;10332;50.208;18.988;2022-10-13T10:37:52;98635.63;;;57.40;6.45
20350;BME280;10332;50.208;18.988;2022-10-13T10:40:45;98635.25;;;57.31;7.01
20350;BME280;10332;50.208;18.988;2022-10-13T10:46:20;98639.91;;;58.09;6.74
20350;BME280;10332;50.208;18.988;2022-10-13T10:48:55;98639.41;;;58.25;6.36
20350;BME280;10332;50.208;18.988;2022-10-13T10:51:31;98635.25;;;57.06;6.92
20350;BME280;10332;50.208;18.988;2022-10-13T10:54:40;98623.59;;;56.79;6.58
20350;BME280;10332;50.208;18.988;2022-10-13T10:57:56;98622.38;;;56.59;6.97
20350;BME280;10332;50.208;18.988;2022-10-13T11:00:26;98617.97;;;57.33;6.56
20350;BME280;10332;50.208;18.988;2022-10-13T11:03:14;98607.88;;;57.71;6.31
20350;BME280;10332;50.208;18.988;2022-10-13T11:06:16;98608.66;;;57.75;6.52
20350;BME280;10332;50.208;18.988;2022-10-13T11:08:49;98610.97;;;58.02;6.05
20350;BME280;10332;50.208;18.988;2022-10-13T11:16:40;98592.06;;;54.34;7.81
20350;BME280;10332;50.208;18.988;2022-10-13T11:19:36;98585.34;;;52.50;8.04
20350;BME280;10332;50.208;18.988;2022-10-13T11:35:20;98559.44;;;47.35;10.77
20350;BME280;10332;50.208;18.988;2022-10-13T11:43:59;98546.75;;;46.66;10.98
20350;BME280;10332;50.208;18.988;2022-10-13T11:49:41;98545.75;;;44.84;11.76
20350;BME280;10332;50.208;18.988;2022-10-13T11:55:50;98530.03;;;41.88;13.84
20350;BME280;10332;50.208;18.988;2022-10-13T11:58:29;98525.28;;;39.53;15.59
20350;BME280;10332;50.208;18.988;2022-10-13T12:01:09;98519.09;;;38.27;16.30
20350;BME280;10332;50.208;18.988;2022-10-13T12:03:44;98514.59;;;37.34;17.48
20350;BME280;10332;50.208;18.988;2022-10-13T12:08:49;98517.34;;;41.36;14.99
20350;BME280;10332;50.208;18.988;2022-10-13T12:11:27;98508.88;;;38.94;16.37
20350;BME280;10332;50.208;18.988;2022-10-13T12:13:56;98510.69;;;41.80;14.72
20350;BME280;10332;50.208;18.988;2022-10-13T12:16:25;98513.44;;;40.12;15.99
20350;BME280;10332;50.208;18.988;2022-10-13T12:19:07;98501.59;;;38.18;17.57
20350;BME280;10332;50.208;18.988;2022-10-13T12:21:52;98498.91;;;38.13;17.65
20350;BME280;10332;50.208;18.988;2022-10-13T12:24:25;98509.16;;;37.39;18.47
20350;BME280;10332;50.208;18.988;2022-10-13T12:26:54;98504.84;;;37.69;18.44
20350;BME280;10332;50.208;18.988;2022-10-13T12:29:27;98497.06;;;39.13;17.19
20350;BME280;10332;50.208;18.988;2022-10-13T12:32:01;98496.13;;;37.67;18.01
20350;BME280;10332;50.208;18.988;2022-10-13T12:34:32;98499.59;;;35.73;20.00
20350;BME280;10332;50.208;18.988;2022-10-13T12:39:45;98484.16;;;38.09;18.16
20350;BME280;10332;50.208;18.988;2022-10-13T12:42:14;98486.22;;;39.48;17.44
20350;BME280;10332;50.208;18.988;2022-10-13T12:44:41;98488.16;;;41.02;16.40
20350;BME280;10332;50.208;18.988;2022-10-13T12:53:22;98487.75;;;40.37;16.74
20350;BME280;10332;50.208;18.988;2022-10-13T12:55:57;98482.09;;;39.89;16.96
20350;BME280;10332;50.208;18.988;2022-10-13T12:58:31;98478.81;;;37.15;18.70
20350;BME280;10332;50.208;18.988;2022-10-13T13:03:42;98476.22;;;35.23;20.66
20350;BME280;10332;50.208;18.988;2022-10-13T13:08:42;98466.41;;;37.75;19.19
20350;BME280;10332;50.208;18.988;2022-10-13T13:11:37;98464.03;;;40.27;17.37
20350;BME280;10332;50.208;18.988;2022-10-13T13:14:39;98455.78;;;41.61;16.52
20350;BME280;10332;50.208;18.988;2022-10-13T13:17:13;98453.66;;;42.56;15.57
20350;BME280;10332;50.208;18.988;2022-10-13T13:19:54;98452.59;;;43.34;15.36
20350;BME280;10332;50.208;18.988;2022-10-13T13:22:22;98452.66;;;43.79;14.95
20350;BME280;10332;50.208;18.988;2022-10-13T13:24:50;98446.03;;;43.44;15.00
20350;BME280;10332;50.208;18.988;2022-10-13T13:27:38;98450.94;;;43.33;14.67
20350;BME280;10332;50.208;18.988;2022-10-13T13:30:16;98446.25;;;43.70;14.87
20350;BME280;10332;50.208;18.988;2022-10-13T13:32:44;98445.25;;;43.88;14.80
20350;BME280;10332;50.208;18.988;2022-10-13T13:35:12;98445.13;;;44.15;14.59
20350;BME280;10332;50.208;18.988;2022-10-13T13:37:44;98440.66;;;44.37;14.30
20350;BME280;10332;50.208;18.988;2022-10-13T13:40:26;98439.94;;;43.33;14.78
20350;BME280;10332;50.208;18.988;2022-10-13T13:42:54;98442.94;;;43.09;15.01
20350;BME280;10332;50.208;18.988;2022-10-13T13:45:23;98446.66;;;42.63;15.40
20350;BME280;10332;50.208;18.988;2022-10-13T13:47:53;98437.75;;;42.25;15.74
20350;BME280;10332;50.208;18.988;2022-10-13T13:50:34;98436.84;;;40.84;16.80
20350;BME280;10332;50.208;18.988;2022-10-13T13:53:03;98442.25;;;38.89;18.14
20350;BME280;10332;50.208;18.988;2022-10-13T13:55:31;98439.16;;;38.01;18.79
20350;BME280;10332;50.208;18.988;2022-10-13T13:57:59;98442.06;;;38.66;18.64
20350;BME280;10332;50.208;18.988;2022-10-13T14:00:26;98428.03;;;39.42;17.93
20350;BME280;10332;50.208;18.988;2022-10-13T14:02:56;98430.91;;;40.00;17.54
20350;BME280;10332;50.208;18.988;2022-10-13T14:05:23;98423.53;;;40.24;17.38
20350;BME280;10332;50.208;18.988;2022-10-13T14:07:55;98420.84;;;40.72;16.99
20350;BME280;10332;50.208;18.988;2022-10-13T14:10:25;98429.28;;;40.52;17.10
20350;BME280;10332;50.208;18.988;2022-10-13T14:12:52;98419.50;;;40.46;17.24
20350;BME280;10332;50.208;18.988;2022-10-13T14:15:20;98435.91;;;39.88;17.70
20350;BME280;10332;50.208;18.988;2022-10-13T14:17:53;98432.78;;;39.26;18.14
20350;BME280;10332;50.208;18.988;2022-10-13T14:20:21;98431.47;;;38.44;18.52
20350;BME280;10332;50.208;18.988;2022-10-13T14:22:48;98419.81;;;37.77;19.46
20350;BME280;10332;50.208;18.988;2022-10-13T14:25:16;98421.44;;;36.22;20.53
20350;BME280;10332;50.208;18.988;2022-10-13T14:27:43;98425.31;;;35.13;21.63
20350;BME280;10332;50.208;18.988;2022-10-13T14:30:12;98421.44;;;35.58;21.26
20350;BME280;10332;50.208;18.988;2022-10-13T14:32:40;98422.31;;;35.37;21.66
20350;BME280;10332;50.208;18.988;2022-10-13T14:35:08;98417.41;;;34.07;22.87
20350;BME280;10332;50.208;18.988;2022-10-13T14:37:35;98418.19;;;34.41;22.75
20350;BME280;10332;50.208;18.988;2022-10-13T14:40:04;98411.50;;;34.10;23.22
20350;BME280;10332;50.208;18.988;2022-10-13T14:42:32;98424.00;;;34.50;22.66
20350;BME280;10332;50.208;18.988;2022-10-13T14:44:59;98425.28;;;34.64;22.74
20350;BME280;10332;50.208;18.988;2022-10-13T14:47:26;98421.28;;;34.50;22.78
20350;BME280;10332;50.208;18.988;2022-10-13T14:49:54;98420.00;;;33.85;23.54
20350;BME280;10332;50.208;18.988;2022-10-13T14:52:21;98417.47;;;33.17;24.36
20350;BME280;10332;50.208;18.988;2022-10-13T14:54:49;98416.00;;;32.45;25.31
20350;BME280;10332;50.208;18.988;2022-10-13T14:57:16;98411.97;;;31.06;26.53
20350;BME280;10332;50.208;18.988;2022-10-13T14:59:46;98416.78;;;29.81;28.03